createdAt,value
2022-07-29T00:01:04.256Z,99.90
2022-07-29T00:03:31.305Z,99.90
2022-07-29T00:05:58.501Z,99.90
2022-07-29T00:08:25.441Z,99.90
2022-07-29T00:10:52.488Z,99.90
2022-07-29T00:13:32.108Z,99.90
2022-07-29T00:16:04.836Z,99.90
2022-07-29T00:18:32.944Z,99.90
2022-07-29T00:21:00.071Z,99.90
2022-07-29T00:23:26.979Z,99.90
2022-07-29T00:25:53.857Z,99.90
2022-07-29T00:28:20.780Z,99.90
2022-07-29T00:30:47.671Z,99.90
2022-07-29T00:33:14.557Z,99.90
2022-07-29T00:35:47.390Z,99.90
2022-07-29T00:38:15.938Z,99.90
2022-07-29T00:40:44.093Z,99.90
2022-07-29T00:43:12.758Z,99.90
2022-07-29T00:45:39.692Z,99.90
2022-07-29T00:48:07.593Z,99.90
2022-07-29T00:50:34.704Z,99.90
2022-07-29T00:53:03.434Z,99.90
2022-07-29T00:55:30.690Z,99.90
2022-07-29T00:57:59.136Z,99.90
2022-07-29T01:00:28.685Z,99.90
2022-07-29T01:02:55.767Z,99.90
2022-07-29T01:05:24.937Z,99.90
2022-07-29T01:08:14.100Z,99.90
2022-07-29T01:10:42.772Z,99.90
2022-07-29T01:13:10.812Z,99.90
2022-07-29T01:16:00.304Z,99.90
2022-07-29T01:18:34.785Z,99.90
2022-07-29T01:21:13.472Z,99.90
2022-07-29T01:23:58.816Z,99.90
2022-07-29T01:26:58.617Z,99.90
2022-07-29T01:29:36.110Z,99.90
2022-07-29T01:32:20.262Z,99.90
2022-07-29T01:35:21.829Z,99.90
2022-07-29T01:37:51.979Z,99.90
2022-07-29T01:40:50.133Z,99.90
2022-07-29T01:43:32.483Z,99.90
2022-07-29T01:46:04.981Z,99.90
2022-07-29T01:48:35.955Z,99.90
2022-07-29T01:51:13.035Z,99.90
2022-07-29T01:54:11.951Z,99.90
2022-07-29T01:56:40.170Z,99.90
2022-07-29T01:59:09.618Z,99.90
2022-07-29T02:01:38.539Z,99.90
2022-07-29T02:04:07.692Z,99.90
2022-07-29T02:06:38.498Z,99.90
2022-07-29T02:09:08.626Z,99.90
2022-07-29T02:11:38.675Z,99.90
2022-07-29T02:14:07.320Z,99.90
2022-07-29T02:16:36.930Z,99.90
2022-07-29T02:19:05.024Z,99.90
2022-07-29T02:21:34.762Z,99.90
2022-07-29T02:24:03.218Z,99.90
2022-07-29T02:26:33.437Z,99.90
2022-07-29T02:29:02.321Z,99.90
2022-07-29T02:31:33.938Z,99.90
2022-07-29T02:34:04.590Z,99.90
2022-07-29T02:36:33.159Z,99.90
2022-07-29T02:39:01.828Z,99.90
2022-07-29T02:41:45.465Z,99.90
2022-07-29T02:44:20.568Z,99.90
2022-07-29T02:47:07.477Z,99.90
2022-07-29T02:49:53.702Z,99.90
2022-07-29T02:52:32.699Z,99.90
2022-07-29T02:55:08.103Z,99.90
2022-07-29T02:57:54.502Z,99.90
2022-07-29T03:00:24.721Z,99.90
2022-07-29T03:02:54.744Z,99.90
2022-07-29T03:05:23.444Z,99.90
2022-07-29T03:07:57.996Z,99.90
2022-07-29T03:10:26.999Z,99.90
2022-07-29T03:12:55.180Z,99.90
2022-07-29T03:15:22.780Z,99.90
2022-07-29T03:17:52.851Z,99.90
2022-07-29T03:20:20.057Z,99.90
2022-07-29T03:22:49.848Z,99.90
2022-07-29T03:25:19.007Z,99.90
2022-07-29T03:27:46.937Z,99.90
2022-07-29T03:30:20.374Z,99.90
2022-07-29T03:32:52.241Z,99.90
2022-07-29T03:35:20.685Z,99.90
2022-07-29T03:37:48.094Z,99.90
2022-07-29T03:40:26.910Z,99.90
2022-07-29T03:42:56.539Z,99.90
2022-07-29T03:45:24.863Z,99.90
2022-07-29T03:48:00.304Z,99.90
2022-07-29T03:50:31.279Z,99.90
2022-07-29T03:52:59.139Z,99.90
2022-07-29T03:55:29.719Z,99.90
2022-07-29T03:57:58.180Z,99.90
2022-07-29T04:00:28.928Z,99.90
2022-07-29T04:02:55.800Z,99.90
2022-07-29T04:05:22.652Z,99.90
2022-07-29T04:07:49.755Z,99.90
2022-07-29T04:10:18.077Z,99.90
2022-07-29T04:12:57.437Z,99.90
2022-07-29T04:15:24.497Z,99.90
2022-07-29T04:17:51.381Z,99.90
2022-07-29T04:20:18.428Z,99.90
2022-07-29T04:22:45.294Z,99.90
2022-07-29T04:25:12.211Z,99.90
2022-07-29T04:27:59.017Z,99.90
2022-07-29T04:30:25.915Z,99.90
2022-07-29T04:32:53.127Z,99.90
2022-07-29T04:35:20.890Z,99.90
2022-07-29T04:37:47.817Z,99.90
2022-07-29T04:40:15.148Z,99.90
2022-07-29T04:42:46.782Z,99.90
2022-07-29T04:45:15.340Z,99.90
2022-07-29T04:47:43.191Z,99.90
2022-07-29T04:50:10.608Z,99.90
2022-07-29T04:52:37.778Z,99.90
2022-07-29T04:55:06.608Z,99.90
2022-07-29T04:57:33.778Z,99.90
2022-07-29T05:00:01.054Z,99.90
2022-07-29T05:02:28.022Z,99.90
2022-07-29T05:04:54.957Z,99.90
2022-07-29T05:07:21.916Z,99.90
2022-07-29T05:09:49.003Z,99.90
2022-07-29T05:12:15.892Z,99.90
2022-07-29T05:14:42.759Z,99.90
2022-07-29T05:17:09.660Z,99.90
2022-07-29T05:19:39.422Z,99.90
2022-07-29T05:22:06.834Z,99.90
2022-07-29T05:24:33.714Z,99.90
2022-07-29T05:27:00.601Z,99.90
2022-07-29T05:29:44.171Z,99.90
2022-07-29T05:32:12.896Z,99.90
2022-07-29T05:34:51.184Z,99.90
2022-07-29T05:37:22.108Z,99.90
2022-07-29T05:39:56.933Z,99.90
2022-07-29T05:42:25.283Z,99.90
2022-07-29T05:44:52.366Z,99.90
2022-07-29T05:47:19.327Z,99.90
2022-07-29T05:49:47.112Z,99.90
2022-07-29T05:52:14.317Z,99.90
2022-07-29T05:54:41.334Z,99.90
2022-07-29T05:57:08.243Z,99.90
2022-07-29T05:59:38.938Z,99.90
2022-07-29T06:02:06.276Z,99.90
2022-07-29T06:04:34.668Z,99.90
2022-07-29T06:07:02.756Z,99.90
2022-07-29T06:09:30.029Z,99.90
2022-07-29T06:11:57.243Z,99.90
2022-07-29T06:14:24.169Z,99.90
2022-07-29T06:16:51.125Z,99.90
2022-07-29T06:19:18.071Z,99.90
2022-07-29T06:21:47.995Z,99.90
2022-07-29T06:24:16.171Z,99.90
2022-07-29T06:26:43.741Z,99.90
2022-07-29T06:29:14.304Z,99.90
2022-07-29T06:31:41.209Z,99.90
2022-07-29T06:34:08.240Z,99.90
2022-07-29T06:36:37.942Z,99.90
2022-07-29T06:39:07.773Z,99.90
2022-07-29T06:41:35.017Z,99.90
2022-07-29T06:44:02.374Z,99.90
2022-07-29T06:46:29.949Z,99.90
2022-07-29T06:48:57.094Z,99.90
2022-07-29T06:51:24.385Z,99.90
2022-07-29T06:54:00.514Z,99.90
2022-07-29T06:56:39.137Z,99.90
2022-07-29T06:59:08.709Z,99.90
2022-07-29T07:01:38.090Z,99.90
2022-07-29T07:04:05.430Z,99.90
2022-07-29T07:06:32.374Z,99.90
2022-07-29T07:08:59.263Z,99.90
2022-07-29T07:11:26.255Z,99.90
2022-07-29T07:13:53.179Z,99.90
2022-07-29T07:16:20.148Z,99.90
2022-07-29T07:18:47.168Z,99.90
2022-07-29T07:21:19.003Z,99.90
2022-07-29T07:23:47.074Z,99.90
2022-07-29T07:26:14.013Z,99.90
2022-07-29T07:28:40.984Z,99.90
2022-07-29T07:31:07.859Z,99.90
2022-07-29T07:33:34.754Z,99.90
2022-07-29T07:36:01.728Z,99.50
2022-07-29T07:38:28.732Z,99.80
2022-07-29T07:40:55.688Z,99.70
2022-07-29T07:43:23.650Z,99.30
2022-07-29T07:45:50.628Z,97.80
2022-07-29T07:48:17.672Z,97.30
2022-07-29T07:50:44.887Z,96.50
2022-07-29T07:53:11.963Z,96.30
2022-07-29T07:58:30.038Z,95.00
2022-07-29T08:00:56.993Z,94.10
2022-07-29T08:03:23.897Z,94.30
2022-07-29T08:05:52.829Z,94.00
2022-07-29T08:08:19.805Z,92.40
2022-07-29T08:10:53.207Z,91.50
2022-07-29T08:13:22.252Z,90.40
2022-07-29T08:15:58.489Z,87.50
2022-07-29T08:18:26.572Z,84.80
2022-07-29T08:20:53.709Z,81.20
2022-07-29T08:23:20.830Z,78.30
2022-07-29T08:25:50.073Z,78.80
2022-07-29T08:28:18.265Z,77.00
2022-07-29T08:30:45.155Z,72.10
2022-07-29T08:33:12.213Z,77.20
2022-07-29T08:35:40.092Z,70.50
2022-07-29T08:38:07.234Z,71.30
2022-07-29T08:40:34.220Z,65.60
2022-07-29T08:43:10.561Z,65.10
2022-07-29T08:45:49.545Z,66.70
2022-07-29T08:48:18.722Z,65.40
2022-07-29T08:50:46.779Z,63.30
2022-07-29T08:53:18.917Z,64.80
2022-07-29T08:55:48.323Z,61.30
2022-07-29T08:58:16.233Z,57.00
2022-07-29T09:00:51.291Z,55.40
2022-07-29T09:03:24.485Z,54.10
2022-07-29T09:05:52.176Z,56.60
2022-07-29T09:08:19.349Z,54.70
2022-07-29T09:10:47.544Z,54.00
2022-07-29T09:13:14.420Z,54.50
2022-07-29T09:15:41.290Z,52.40
2022-07-29T09:18:08.265Z,52.80
2022-07-29T09:21:13.657Z,54.10
2022-07-29T09:23:42.716Z,53.30
2022-07-29T09:26:09.613Z,51.20
2022-07-29T09:28:43.087Z,51.50
2022-07-29T09:31:09.966Z,52.20
2022-07-29T09:33:37.496Z,49.60
2022-07-29T09:36:06.763Z,51.20
2022-07-29T09:38:34.729Z,48.50
2022-07-29T09:41:05.702Z,49.10
2022-07-29T09:43:34.188Z,47.00
2022-07-29T09:46:14.578Z,47.70
2022-07-29T09:48:42.033Z,44.70
2022-07-29T09:51:26.871Z,46.90
2022-07-29T09:54:25.148Z,48.30
2022-07-29T09:56:52.343Z,46.70
2022-07-29T09:59:21.472Z,48.80
2022-07-29T10:01:50.413Z,47.50
2022-07-29T10:04:17.746Z,48.60
2022-07-29T10:07:04.722Z,48.50
2022-07-29T10:09:33.260Z,48.60
2022-07-29T10:12:08.032Z,47.60
2022-07-29T10:14:35.188Z,48.20
2022-07-29T10:17:03.071Z,49.30
2022-07-29T10:19:34.311Z,48.60
2022-07-29T10:22:04.487Z,47.20
2022-07-29T10:24:32.788Z,48.90
2022-07-29T10:27:01.995Z,51.10
2022-07-29T10:29:32.810Z,50.80
2022-07-29T10:32:21.404Z,49.40
2022-07-29T10:35:02.563Z,47.30
2022-07-29T10:37:35.359Z,45.30
2022-07-29T10:40:45.902Z,45.40
2022-07-29T10:43:23.879Z,46.30
2022-07-29T10:45:58.359Z,45.60
2022-07-29T10:48:25.699Z,43.30
2022-07-29T10:51:04.030Z,44.30
2022-07-29T10:53:52.097Z,43.40
2022-07-29T10:56:32.061Z,43.90
2022-07-29T10:59:22.717Z,43.10
2022-07-29T11:01:54.274Z,43.00
2022-07-29T11:04:44.696Z,42.60
2022-07-29T11:07:12.851Z,44.80
2022-07-29T11:09:42.093Z,45.00
2022-07-29T11:12:38.856Z,45.40
2022-07-29T11:15:18.426Z,46.70
2022-07-29T11:17:54.675Z,45.80
2022-07-29T11:20:45.735Z,42.10
2022-07-29T11:23:36.813Z,43.90
2022-07-29T11:26:10.929Z,41.60
2022-07-29T11:28:54.427Z,45.40
2022-07-29T11:31:45.296Z,46.70
2022-07-29T11:37:15.023Z,50.00
2022-07-29T11:39:55.713Z,48.90
2022-07-29T11:42:32.459Z,46.20
2022-07-29T11:45:41.305Z,43.80
2022-07-29T11:48:27.698Z,43.90
2022-07-29T11:50:48.254Z,46.60
2022-07-29T11:53:16.116Z,46.50
2022-07-29T11:55:50.873Z,44.70
2022-07-29T11:58:25.116Z,49.10
2022-07-29T12:01:15.227Z,51.30
2022-07-29T12:03:43.696Z,47.60
2022-07-29T12:06:15.608Z,47.90
2022-07-29T12:07:01.564Z,52.70
2022-07-29T12:08:45.845Z,48.60
2022-07-29T12:11:22.771Z,51.00
2022-07-29T12:13:51.975Z,50.10
2022-07-29T12:16:28.062Z,49.10
2022-07-29T12:19:02.370Z,49.10
2022-07-29T12:21:49.445Z,52.10
2022-07-29T12:24:26.919Z,53.70
2022-07-29T12:27:02.687Z,57.30
2022-07-29T12:29:33.856Z,55.60
2022-07-29T12:32:04.446Z,55.70
2022-07-29T12:34:32.203Z,54.70
2022-07-29T12:36:59.231Z,53.70
2022-07-29T12:39:28.953Z,52.70
2022-07-29T12:42:04.601Z,53.80
2022-07-29T12:44:48.873Z,55.50
2022-07-29T12:47:16.920Z,55.90
2022-07-29T12:49:43.822Z,58.10
2022-07-29T12:52:30.345Z,56.70
2022-07-29T12:54:57.619Z,57.90
2022-07-29T12:57:25.033Z,57.60
2022-07-29T13:00:13.631Z,59.10
2022-07-29T13:02:42.378Z,59.10
2022-07-29T13:05:10.996Z,58.00
2022-07-29T13:07:55.166Z,60.50
2022-07-29T13:10:26.129Z,60.50
2022-07-29T13:13:06.529Z,62.30
2022-07-29T13:15:34.286Z,61.10
2022-07-29T13:18:01.623Z,59.80
2022-07-29T13:20:33.036Z,62.40
2022-07-29T13:23:02.795Z,63.80
2022-07-29T13:25:32.879Z,63.50
2022-07-29T13:28:00.842Z,63.80
2022-07-29T13:30:27.854Z,62.50
2022-07-29T13:32:56.179Z,65.20
2022-07-29T13:35:23.150Z,64.60
2022-07-29T13:37:50.109Z,66.20
2022-07-29T13:40:19.001Z,65.40
2022-07-29T13:42:45.951Z,65.30
2022-07-29T13:45:14.078Z,64.90
2022-07-29T13:47:46.001Z,67.00
2022-07-29T13:50:16.301Z,67.10
2022-07-29T13:52:43.180Z,66.60
2022-07-29T13:55:10.208Z,67.40
2022-07-29T13:57:37.212Z,68.20
2022-07-29T14:00:04.706Z,68.90
2022-07-29T14:02:31.582Z,70.00
2022-07-29T14:04:59.563Z,71.40
2022-07-29T14:07:26.548Z,68.90
2022-07-29T14:09:53.415Z,68.20
2022-07-29T14:12:20.553Z,67.90
2022-07-29T14:14:47.550Z,68.90
2022-07-29T14:17:15.177Z,69.30
2022-07-29T14:19:42.651Z,65.40
2022-07-29T14:22:10.804Z,65.90
2022-07-29T14:24:38.862Z,67.10
2022-07-29T14:27:07.090Z,67.60
2022-07-29T14:29:35.198Z,68.90
2022-07-29T14:32:09.069Z,70.10
2022-07-29T14:34:37.745Z,69.90
2022-07-29T14:37:09.512Z,71.10
2022-07-29T14:39:43.455Z,68.70
2022-07-29T14:42:13.048Z,69.10
2022-07-29T14:44:42.388Z,69.80
2022-07-29T14:47:09.554Z,66.80
2022-07-29T14:49:36.655Z,69.80
2022-07-29T14:52:03.912Z,68.80
2022-07-29T14:54:30.821Z,67.60
2022-07-29T14:56:58.666Z,68.30
2022-07-29T14:59:26.670Z,71.50
2022-07-29T15:01:53.782Z,70.40
2022-07-29T15:04:21.104Z,70.70
2022-07-29T15:06:48.245Z,70.40
2022-07-29T15:09:15.224Z,69.70
2022-07-29T15:11:42.190Z,70.90
2022-07-29T15:14:09.369Z,67.90
2022-07-29T15:16:46.491Z,68.80
2022-07-29T15:19:14.897Z,68.50
2022-07-29T15:21:59.313Z,69.00
2022-07-29T15:24:27.001Z,67.60
2022-07-29T15:26:54.813Z,66.90
2022-07-29T15:29:22.291Z,67.30
2022-07-29T15:31:49.448Z,67.80
2022-07-29T15:34:16.583Z,66.90
2022-07-29T15:36:52.881Z,67.10
2022-07-29T15:39:21.279Z,69.80
2022-07-29T15:41:48.209Z,68.90
2022-07-29T15:44:15.115Z,68.90
2022-07-29T15:47:01.237Z,66.90
2022-07-29T15:49:47.666Z,67.50
2022-07-29T15:52:19.007Z,69.80
2022-07-29T15:54:51.812Z,69.10
2022-07-29T15:57:18.776Z,68.40
2022-07-29T15:59:45.647Z,72.00
2022-07-29T16:02:12.565Z,69.70
2022-07-29T16:04:39.539Z,72.90
2022-07-29T16:07:07.023Z,73.70
2022-07-29T16:09:33.922Z,70.40
2022-07-29T16:12:00.814Z,69.30
2022-07-29T16:14:28.463Z,73.00
2022-07-29T16:16:56.178Z,74.70
2022-07-29T16:19:23.646Z,75.20
2022-07-29T16:21:50.585Z,77.00
2022-07-29T16:24:18.267Z,77.50
2022-07-29T16:26:45.176Z,77.20
2022-07-29T16:29:12.109Z,75.00
2022-07-29T16:31:39.135Z,74.90
2022-07-29T16:34:06.151Z,74.80
2022-07-29T16:36:33.010Z,76.80
2022-07-29T16:39:00.094Z,77.00
2022-07-29T16:41:27.027Z,76.30
2022-07-29T16:43:55.291Z,79.60
2022-07-29T16:46:22.403Z,80.30
2022-07-29T16:48:51.361Z,82.60
2022-07-29T16:51:18.408Z,82.60
2022-07-29T16:53:45.984Z,83.50
2022-07-29T16:56:17.400Z,83.30
2022-07-29T16:58:44.289Z,80.80
2022-07-29T17:01:12.239Z,80.70
2022-07-29T17:04:02.122Z,80.80
2022-07-29T17:06:29.582Z,81.20
2022-07-29T17:08:57.146Z,82.00
2022-07-29T17:11:53.924Z,81.90
2022-07-29T17:14:11.564Z,78.90
2022-07-29T17:16:38.478Z,79.40
2022-07-29T17:19:05.536Z,79.40
2022-07-29T17:21:32.437Z,80.60
2022-07-29T17:23:59.466Z,82.80
2022-07-29T17:26:28.075Z,81.60
2022-07-29T17:28:55.694Z,83.10
2022-07-29T17:31:23.455Z,81.90
2022-07-29T17:33:50.706Z,80.90
2022-07-29T17:36:24.903Z,81.60
2022-07-29T17:38:53.953Z,81.80
2022-07-29T17:41:22.240Z,81.30
2022-07-29T17:43:49.856Z,82.50
2022-07-29T17:46:17.449Z,83.90
2022-07-29T17:48:45.243Z,81.30
2022-07-29T17:51:12.534Z,83.50
2022-07-29T17:53:40.078Z,83.80
2022-07-29T17:56:07.328Z,84.70
2022-07-29T17:58:34.753Z,81.80
2022-07-29T18:01:01.697Z,80.80
2022-07-29T18:03:28.780Z,81.90
2022-07-29T18:05:55.795Z,82.20
2022-07-29T18:08:22.994Z,78.50
2022-07-29T18:10:50.738Z,78.90
2022-07-29T18:13:18.000Z,80.40
2022-07-29T18:15:45.953Z,78.70
2022-07-29T18:18:14.157Z,81.10
2022-07-29T18:20:42.813Z,83.80
2022-07-29T18:23:09.993Z,84.90
2022-07-29T18:25:37.468Z,85.10
2022-07-29T18:28:05.083Z,84.40
2022-07-29T18:30:37.816Z,84.80
2022-07-29T18:33:20.657Z,86.20
2022-07-29T18:35:49.658Z,87.40
2022-07-29T18:38:17.051Z,88.00
2022-07-29T18:40:45.877Z,87.80
2022-07-29T18:43:13.810Z,89.30
2022-07-29T18:45:42.439Z,90.00
2022-07-29T18:48:11.922Z,90.40
2022-07-29T18:50:40.923Z,91.20
2022-07-29T18:53:08.141Z,91.20
2022-07-29T18:55:35.160Z,91.80
2022-07-29T18:58:02.105Z,92.00
2022-07-29T19:00:29.092Z,92.10
2022-07-29T19:02:56.847Z,92.40
2022-07-29T19:05:24.169Z,92.90
2022-07-29T19:07:51.194Z,93.10
2022-07-29T19:10:18.332Z,93.70
2022-07-29T19:12:45.211Z,94.50
2022-07-29T19:15:12.169Z,95.40
2022-07-29T19:17:47.027Z,96.30
2022-07-29T19:20:14.515Z,97.30
2022-07-29T19:22:41.458Z,98.90
2022-07-29T19:25:09.331Z,99.80
2022-07-29T19:27:36.205Z,99.90
2022-07-29T19:30:05.897Z,99.90
2022-07-29T19:32:32.847Z,99.90
2022-07-29T19:35:18.283Z,99.90
2022-07-29T19:37:45.212Z,99.90
2022-07-29T19:40:12.697Z,99.90
2022-07-29T19:42:39.555Z,99.90
2022-07-29T19:45:06.987Z,99.90
2022-07-29T19:47:33.943Z,99.90
2022-07-29T19:50:01.138Z,99.90
2022-07-29T19:52:28.428Z,99.90
2022-07-29T19:54:55.459Z,99.90
2022-07-29T19:57:22.507Z,99.90
2022-07-29T19:59:51.191Z,99.90
2022-07-29T20:02:18.333Z,99.90
2022-07-29T20:04:45.438Z,99.90
2022-07-29T20:07:13.146Z,99.90
2022-07-29T20:09:40.937Z,99.90
2022-07-29T20:12:09.182Z,99.90
2022-07-29T20:14:36.847Z,99.90
2022-07-29T20:17:04.783Z,99.90
2022-07-29T20:19:32.959Z,99.90
2022-07-29T20:22:00.261Z,99.90
2022-07-29T20:24:27.341Z,99.90
2022-07-29T20:26:54.369Z,99.90
2022-07-29T20:29:21.313Z,99.90
2022-07-29T20:31:52.981Z,99.90
2022-07-29T20:34:20.551Z,99.90
2022-07-29T20:36:48.880Z,99.90
2022-07-29T20:39:15.762Z,99.90
2022-07-29T20:41:45.648Z,99.90
2022-07-29T20:44:13.003Z,99.90
2022-07-29T20:46:39.948Z,99.90
2022-07-29T20:49:07.837Z,99.90
2022-07-29T20:51:43.814Z,99.90
2022-07-29T20:54:11.292Z,99.90
2022-07-29T20:56:38.522Z,99.90
2022-07-29T20:59:05.538Z,99.90
2022-07-29T21:01:32.565Z,99.90
2022-07-29T21:04:00.944Z,99.90
2022-07-29T21:06:27.810Z,99.90
2022-07-29T21:08:57.875Z,99.90
2022-07-29T21:11:44.158Z,99.90
2022-07-29T21:14:26.933Z,99.90
2022-07-29T21:16:53.811Z,99.90
2022-07-29T21:19:20.651Z,99.90
2022-07-29T21:21:47.492Z,99.90
2022-07-29T21:24:14.371Z,99.90
2022-07-29T21:26:41.422Z,99.90
2022-07-29T21:29:08.301Z,99.90
2022-07-29T21:31:35.195Z,99.90
2022-07-29T21:34:02.054Z,99.90
2022-07-29T21:36:47.756Z,99.90
2022-07-29T21:39:15.347Z,99.90
2022-07-29T21:41:42.192Z,99.90
2022-07-29T21:44:09.085Z,99.90
2022-07-29T21:46:36.778Z,99.90
2022-07-29T21:49:03.862Z,99.90
2022-07-29T21:51:30.853Z,99.90
2022-07-29T21:53:57.722Z,99.90
2022-07-29T21:56:27.563Z,99.90
2022-07-29T21:58:54.866Z,99.90
2022-07-29T22:01:21.816Z,99.90
2022-07-29T22:03:48.713Z,99.90
2022-07-29T22:06:18.135Z,99.90
2022-07-29T22:08:45.784Z,99.90
2022-07-29T22:11:13.372Z,99.90
2022-07-29T22:13:40.416Z,99.90
2022-07-29T22:16:07.642Z,99.90
2022-07-29T22:18:34.528Z,99.90
2022-07-29T22:21:01.407Z,99.90
2022-07-29T22:23:28.322Z,99.90
2022-07-29T22:25:55.219Z,99.90
2022-07-29T22:28:22.136Z,99.90
2022-07-29T22:30:49.054Z,99.90
2022-07-29T22:33:16.997Z,99.90
2022-07-29T22:35:45.227Z,99.90
2022-07-29T22:38:16.398Z,99.90
2022-07-29T22:40:43.338Z,99.90
2022-07-29T22:43:10.786Z,99.90
2022-07-29T22:45:37.721Z,99.90
2022-07-29T22:48:05.518Z,99.90
2022-07-29T22:50:32.402Z,99.90
2022-07-29T22:52:59.309Z,99.90
2022-07-29T22:55:26.202Z,99.90
2022-07-29T22:57:53.132Z,99.90
2022-07-29T23:00:20.027Z,99.90
2022-07-29T23:02:47.619Z,99.90
2022-07-29T23:05:15.928Z,99.90
2022-07-29T23:07:43.238Z,99.90
2022-07-29T23:10:10.500Z,99.90
2022-07-29T23:12:37.476Z,99.90
2022-07-29T23:15:05.866Z,99.90
2022-07-29T23:17:36.079Z,99.90
2022-07-29T23:20:09.746Z,99.90
2022-07-29T23:22:37.180Z,99.90
2022-07-29T23:25:05.230Z,99.90
2022-07-29T23:27:32.272Z,99.90
2022-07-29T23:29:59.145Z,99.90
2022-07-29T23:32:26.035Z,99.90
2022-07-29T23:34:52.922Z,99.90
2022-07-29T23:37:19.934Z,99.90
2022-07-29T23:39:46.846Z,99.90
2022-07-29T23:42:13.717Z,99.90
2022-07-29T23:44:40.625Z,99.90
2022-07-29T23:47:07.545Z,99.90
2022-07-29T23:49:34.508Z,99.90
2022-07-29T23:52:01.442Z,99.90
2022-07-29T23:54:28.361Z,99.90
2022-07-29T23:56:57.842Z,99.90
2022-07-29T23:59:25.125Z,99.90
